MV Nord Discovery — 3EGP — position and weather

sailwx.info

Track history (hours):
 
Tides and Currents Weather Stations Pressure Air Temp Water Temp Dewpoint Dewpoint Depression Visibility Wind Speed Wind Dir Waves Ship Positions

MV Nord Discovery

Last reported at 2015-Feb-19 15:06 UTC. Time now 2015-Feb-28 17:33 UTC.
Position S 31°48' E 115°30'.
Warning: this ship's position is 9 days out of date.

Length 183 m; draft 11.3 m.

Type: Cargo ship. MMSI: 354855000.

Date/timePositionNaut miles runAvg speedWind from/ knotsBaromVisibWave heightAir tempDewpointWater temp
2015-Feb-19 15:06S 31°48' E 115°30'611.6
2015-Feb-19 14:33S 31°53' E 115°34'1010.0
2015-Feb-19 13:33S 32°01' E 115°42'1010.4
2015-Feb-19 12:33S 32°11' E 115°44'2 2.3
2015-Feb-19 11:31S 32°13' E 115°46'0 0.0
2015-Feb-19 10:31S 32°13' E 115°46'0 0.0
2015-Feb-19 09:31S 32°13' E 115°46'0 0.0
2015-Feb-19 08:31S 32°13' E 115°46'0 0.0
2015-Feb-19 07:31S 32°13' E 115°46'0 0.0
2015-Feb-19 06:31S 32°13' E 115°46'0 0.0
2015-Feb-19 05:31S 32°13' E 115°46'0 0.1
2015-Feb-19 04:31S 32°13' E 115°46'0 0.1
2015-Feb-19 03:31S 32°13' E 115°46'0 0.1
2015-Feb-19 02:31S 32°13' E 115°46'0 0.1
2015-Feb-19 01:31S 32°13' E 115°46'0 0.1
2015-Feb-19 00:31S 32°13' E 115°46'0 0.0
2015-Feb-18 23:31S 32°13' E 115°46'0 0.0
2015-Feb-18 22:31S 32°13' E 115°46'0 0.0
2015-Feb-18 21:31S 32°13' E 115°46'0 0.1
2015-Feb-18 20:31S 32°13' E 115°46'0 0.1
2015-Feb-18 19:31S 32°13' E 115°46'0 0.0
2015-Feb-18 18:31S 32°13' E 115°46'0 0.1
2015-Feb-18 17:31S 32°13' E 115°46'0 0.0
2015-Feb-18 16:31S 32°13' E 115°46'0 0.0
2015-Feb-18 15:31S 32°13' E 115°46'0 0.0
2015-Feb-18 14:31S 32°13' E 115°46'0 0.0
2015-Feb-18 13:31S 32°13' E 115°46'0 0.0
2015-Feb-18 12:31S 32°13' E 115°46'0 0.0
2015-Feb-18 11:31S 32°13' E 115°46'0 0.0
2015-Feb-18 10:31S 32°13' E 115°46'0 0.0
2015-Feb-18 09:31S 32°13' E 115°46'0 0.0
2015-Feb-18 08:31S 32°13' E 115°46'0 0.0
2015-Feb-18 07:31S 32°13' E 115°46'0 0.0
2015-Feb-18 06:31S 32°13' E 115°46'0 0.0
2015-Feb-18 05:31S 32°13' E 115°46'0 0.0
2015-Feb-18 04:31S 32°13' E 115°46'0 0.0
2015-Feb-18 03:31S 32°13' E 115°46'0 0.0
2015-Feb-18 02:31S 32°13' E 115°46'0 0.0
2015-Feb-18 01:31S 32°13' E 115°46'0 0.0
2015-Feb-18 00:31S 32°13' E 115°46'0 0.0
2015-Feb-17 23:33S 32°13' E 115°46'4 3.9
2015-Feb-17 22:32S 32°11' E 115°42'0 0.1
2015-Feb-17 21:32S 32°10' E 115°42'0 0.1
2015-Feb-17 20:32S 32°10' E 115°42'0 0.0
2015-Feb-17 19:32S 32°10' E 115°42'0 0.0
2015-Feb-17 17:32S 32°10' E 115°42'0 0.0
2015-Feb-17 16:32S 32°10' E 115°42'0 0.0
2015-Feb-17 15:32S 32°10' E 115°42'0 0.0
2015-Feb-17 14:32S 32°10' E 115°42'0 0.1
2015-Feb-17 13:32S 32°10' E 115°42'0 0.1
2015-Feb-17 12:32S 32°10' E 115°42'0 0.1
2015-Feb-17 11:32S 32°10' E 115°42'0 0.1
2015-Feb-17 10:32S 32°10' E 115°42'2 2.3
2015-Feb-17 09:34S 32°08' E 115°42'10 9.9
2015-Feb-17 08:33S 31°58' E 115°41'  
Track history (hours):
 
Tides and Currents Weather Stations Pressure Air Temp Water Temp Dewpoint Dewpoint Depression Visibility Wind Speed Wind Dir Waves Ship Positions

MV Nord Discovery

Last reported at 2015-Feb-19 15:06 UTC. Time now 2015-Feb-28 17:33 UTC.
Position S 31°48' E 115°30'.
Warning: this ship's position is 9 days out of date.

Length 183 m; draft 11.3 m.

Type: Cargo ship. MMSI: 354855000.

Date/timePositionNaut miles runAvg speedWind from/ knotsBaromVisibWave heightAir tempDewpointWater temp
2015-Feb-19 15:06S 31°48' E 115°30'611.6
2015-Feb-19 14:33S 31°53' E 115°34'1010.0
2015-Feb-19 13:33S 32°01' E 115°42'1010.4
2015-Feb-19 12:33S 32°11' E 115°44'2 2.3
2015-Feb-19 11:31S 32°13' E 115°46'0 0.0
2015-Feb-19 10:31S 32°13' E 115°46'0 0.0
2015-Feb-19 09:31S 32°13' E 115°46'0 0.0
2015-Feb-19 08:31S 32°13' E 115°46'0 0.0
2015-Feb-19 07:31S 32°13' E 115°46'0 0.0
2015-Feb-19 06:31S 32°13' E 115°46'0 0.0
2015-Feb-19 05:31S 32°13' E 115°46'0 0.1
2015-Feb-19 04:31S 32°13' E 115°46'0 0.1
2015-Feb-19 03:31S 32°13' E 115°46'0 0.1
2015-Feb-19 02:31S 32°13' E 115°46'0 0.1
2015-Feb-19 01:31S 32°13' E 115°46'0 0.1
2015-Feb-19 00:31S 32°13' E 115°46'0 0.0
2015-Feb-18 23:31S 32°13' E 115°46'0 0.0
2015-Feb-18 22:31S 32°13' E 115°46'0 0.0
2015-Feb-18 21:31S 32°13' E 115°46'0 0.1
2015-Feb-18 20:31S 32°13' E 115°46'0 0.1
2015-Feb-18 19:31S 32°13' E 115°46'0 0.0
2015-Feb-18 18:31S 32°13' E 115°46'0 0.1
2015-Feb-18 17:31S 32°13' E 115°46'0 0.0
2015-Feb-18 16:31S 32°13' E 115°46'0 0.0
2015-Feb-18 15:31S 32°13' E 115°46'0 0.0
2015-Feb-18 14:31S 32°13' E 115°46'0 0.0
2015-Feb-18 13:31S 32°13' E 115°46'0 0.0
2015-Feb-18 12:31S 32°13' E 115°46'0 0.0
2015-Feb-18 11:31S 32°13' E 115°46'0 0.0
2015-Feb-18 10:31S 32°13' E 115°46'0 0.0
2015-Feb-18 09:31S 32°13' E 115°46'0 0.0
2015-Feb-18 08:31S 32°13' E 115°46'0 0.0
2015-Feb-18 07:31S 32°13' E 115°46'0 0.0
2015-Feb-18 06:31S 32°13' E 115°46'0 0.0
2015-Feb-18 05:31S 32°13' E 115°46'0 0.0
2015-Feb-18 04:31S 32°13' E 115°46'0 0.0
2015-Feb-18 03:31S 32°13' E 115°46'0 0.0
2015-Feb-18 02:31S 32°13' E 115°46'0 0.0
2015-Feb-18 01:31S 32°13' E 115°46'0 0.0
2015-Feb-18 00:31S 32°13' E 115°46'0 0.0
2015-Feb-17 23:33S 32°13' E 115°46'4 3.9
2015-Feb-17 22:32S 32°11' E 115°42'0 0.1
2015-Feb-17 21:32S 32°10' E 115°42'0 0.1
2015-Feb-17 20:32S 32°10' E 115°42'0 0.0
2015-Feb-17 19:32S 32°10' E 115°42'0 0.0
2015-Feb-17 17:32S 32°10' E 115°42'0 0.0
2015-Feb-17 16:32S 32°10' E 115°42'0 0.0
2015-Feb-17 15:32S 32°10' E 115°42'0 0.0
2015-Feb-17 14:32S 32°10' E 115°42'0 0.1
2015-Feb-17 13:32S 32°10' E 115°42'0 0.1
2015-Feb-17 12:32S 32°10' E 115°42'0 0.1
2015-Feb-17 11:32S 32°10' E 115°42'0 0.1
2015-Feb-17 10:32S 32°10' E 115°42'2 2.3
2015-Feb-17 09:34S 32°08' E 115°42'10 9.9
2015-Feb-17 08:33S 31°58' E 115°41'  

Dump ship's entire track history